createdAt,value
2018-04-23T00:01:36.873Z,6.50
2018-04-23T00:04:05.206Z,6.67
2018-04-23T00:06:33.599Z,5.97
2018-04-23T00:09:02.089Z,6.13
2018-04-23T00:11:30.560Z,5.77
2018-04-23T00:13:58.956Z,5.47
2018-04-23T00:16:27.372Z,5.70
2018-04-23T00:18:56.620Z,6.23
2018-04-23T00:21:26.320Z,6.60
2018-04-23T00:23:54.730Z,6.13
2018-04-23T00:26:23.187Z,5.80
2018-04-23T00:28:51.663Z,6.03
2018-04-23T00:31:20.093Z,6.67
2018-04-23T00:33:48.529Z,6.07
2018-04-23T00:36:17.008Z,6.17
2018-04-23T00:38:45.333Z,5.97
2018-04-23T00:41:13.914Z,5.57
2018-04-23T00:43:42.235Z,6.30
2018-04-23T00:48:50.572Z,5.87
2018-04-23T00:51:19.052Z,6.03
2018-04-23T00:53:47.540Z,5.73
2018-04-23T00:56:15.958Z,6.03
2018-04-23T00:58:44.311Z,6.73
2018-04-23T01:01:12.652Z,6.60
2018-04-23T01:03:41.150Z,7.33
2018-04-23T01:06:09.644Z,6.97
2018-04-23T01:08:37.965Z,5.37
2018-04-23T01:11:07.209Z,5.60
2018-04-23T01:13:35.699Z,6.03
2018-04-23T01:16:04.095Z,6.87
2018-04-23T01:18:32.560Z,6.60
2018-04-23T01:21:01.029Z,6.67
2018-04-23T01:23:29.380Z,7.47
2018-04-23T01:25:57.825Z,6.70
2018-04-23T01:28:27.736Z,7.20
2018-04-23T01:30:56.180Z,6.90
2018-04-23T01:33:24.661Z,5.40
2018-04-23T01:35:52.991Z,6.17
2018-04-23T01:38:21.449Z,6.50
2018-04-23T01:40:49.899Z,5.93
2018-04-23T01:43:18.335Z,6.23
2018-04-23T01:45:47.496Z,5.87
2018-04-23T01:48:15.963Z,5.87
2018-04-23T01:50:44.347Z,6.03
2018-04-23T01:53:12.821Z,7.37
2018-04-23T01:55:41.239Z,6.33
2018-04-23T01:58:09.786Z,5.97
2018-04-23T02:00:38.264Z,6.00
2018-04-23T02:03:06.741Z,6.20
2018-04-23T02:05:35.167Z,6.23
2018-04-23T02:08:05.138Z,6.60
2018-04-23T02:10:33.519Z,7.40
2018-04-23T02:13:01.998Z,6.20
2018-04-23T02:15:30.480Z,6.80
2018-04-23T02:17:58.956Z,5.87
2018-04-23T02:20:27.393Z,6.57
2018-04-23T02:22:56.571Z,6.30
2018-04-23T02:25:24.855Z,5.63
2018-04-23T02:27:53.393Z,5.53
2018-04-23T02:30:21.817Z,5.97
2018-04-23T02:32:50.252Z,6.03
2018-04-23T02:35:18.678Z,5.93
2018-04-23T02:37:47.219Z,5.70
2018-04-23T02:40:15.698Z,6.13
2018-04-23T02:42:44.121Z,5.53
2018-04-23T02:45:13.376Z,5.77
2018-04-23T02:47:41.754Z,6.07
2018-04-23T02:50:10.241Z,5.43
2018-04-23T02:52:38.779Z,6.00
2018-04-23T02:55:08.021Z,6.00
2018-04-23T02:57:36.439Z,5.83
2018-04-23T03:00:05.694Z,5.63
2018-04-23T03:02:34.180Z,6.80
2018-04-23T03:05:02.620Z,6.03
2018-04-23T03:07:31.787Z,6.37
2018-04-23T03:10:00.336Z,6.90
2018-04-23T03:12:28.714Z,7.67
2018-04-23T03:14:57.199Z,7.17
2018-04-23T03:17:25.572Z,7.07
2018-04-23T03:19:53.950Z,6.73
2018-04-23T03:22:22.949Z,7.10
2018-04-23T03:24:51.470Z,6.70
2018-04-23T03:27:19.789Z,6.63
2018-04-23T03:29:48.286Z,5.87
2018-04-23T03:32:16.762Z,5.97
2018-04-23T03:34:45.139Z,6.37
2018-04-23T03:37:13.686Z,5.73
2018-04-23T03:39:42.026Z,6.23
2018-04-23T03:42:10.415Z,6.80
2018-04-23T03:44:38.861Z,5.50
2018-04-23T03:47:07.543Z,6.23
2018-04-23T03:49:35.859Z,5.57
2018-04-23T03:52:04.438Z,6.03
2018-04-23T03:54:32.946Z,6.33
2018-04-23T03:57:02.189Z,6.30
2018-04-23T03:59:30.562Z,6.47
2018-04-23T04:01:58.988Z,6.00
2018-04-23T04:04:30.295Z,5.80
2018-04-23T04:06:58.770Z,7.13
2018-04-23T04:09:27.111Z,6.30
2018-04-23T04:11:56.450Z,5.10
2018-04-23T04:14:37.017Z,5.67
2018-04-23T04:17:05.497Z,7.47
2018-04-23T04:19:33.853Z,8.47
2018-04-23T04:22:02.352Z,8.03
2018-04-23T04:24:30.839Z,9.47
2018-04-23T04:26:59.280Z,9.30
2018-04-23T04:29:28.480Z,7.23
2018-04-23T04:31:57.721Z,6.50
2018-04-23T04:34:26.159Z,7.50
2018-04-23T04:36:54.569Z,6.93
2018-04-23T04:39:22.955Z,6.67
2018-04-23T04:41:51.371Z,6.87
2018-04-23T04:44:21.358Z,8.40
2018-04-23T04:46:49.827Z,7.23
2018-04-23T04:49:18.306Z,6.80
2018-04-23T04:51:46.858Z,6.83
2018-04-23T04:54:16.094Z,6.60
2018-04-23T04:56:44.573Z,7.23
2018-04-23T04:59:12.952Z,7.43
2018-04-23T05:01:41.463Z,7.30
2018-04-23T05:04:09.860Z,6.10
2018-04-23T05:06:38.291Z,5.50
2018-04-23T05:09:06.726Z,6.63
2018-04-23T05:11:35.079Z,7.10
2018-04-23T05:14:03.464Z,6.23
2018-04-23T05:16:32.316Z,8.40
2018-04-23T05:19:00.662Z,8.90
2018-04-23T05:21:29.997Z,9.00
2018-04-23T05:23:58.321Z,9.17
2018-04-23T05:26:26.812Z,8.73
2018-04-23T05:28:55.368Z,8.93
2018-04-23T05:31:23.813Z,9.20
2018-04-23T05:33:52.192Z,9.50
2018-04-23T05:36:20.512Z,9.13
2018-04-23T05:38:48.878Z,9.60
2018-04-23T05:41:17.213Z,9.03
2018-04-23T05:43:45.641Z,9.53
2018-04-23T05:46:15.683Z,9.27
2018-04-23T05:48:44.106Z,10.30
2018-04-23T05:51:12.460Z,9.37
2018-04-23T05:53:40.970Z,10.07
2018-04-23T05:56:09.540Z,9.83
2018-04-23T05:58:37.929Z,10.83
2018-04-23T06:01:06.459Z,10.90
2018-04-23T06:03:35.619Z,9.27
2018-04-23T06:06:03.979Z,10.07
2018-04-23T06:08:32.466Z,10.13
2018-04-23T06:11:00.767Z,8.60
2018-04-23T06:13:29.164Z,8.97
2018-04-23T06:15:57.592Z,8.70
2018-04-23T06:18:30.230Z,8.00
2018-04-23T06:21:07.060Z,7.80
2018-04-23T06:23:35.389Z,8.47
2018-04-23T06:26:04.664Z,8.53
2018-04-23T06:28:33.161Z,8.43
2018-04-23T06:31:02.390Z,7.43
2018-04-23T06:33:32.352Z,8.00
2018-04-23T06:36:00.905Z,8.47
2018-04-23T06:38:29.248Z,8.70
2018-04-23T06:40:57.764Z,7.70
2018-04-23T06:43:26.249Z,7.40
2018-04-23T06:45:54.625Z,7.37
2018-04-23T06:48:23.004Z,7.57
2018-04-23T06:50:51.591Z,7.30
2018-04-23T06:53:20.082Z,7.27
2018-04-23T06:55:48.543Z,7.23
2018-04-23T06:58:17.030Z,7.00
2018-04-23T07:00:45.513Z,8.10
2018-04-23T07:03:14.246Z,7.93
2018-04-23T07:05:42.778Z,7.97
2018-04-23T07:08:12.492Z,9.70
2018-04-23T07:10:40.826Z,9.10
2018-04-23T07:13:10.016Z,8.73
2018-04-23T07:15:40.443Z,8.77
2018-04-23T07:18:09.693Z,7.17
2018-04-23T07:20:38.168Z,8.43
2018-04-23T07:23:06.628Z,11.43
2018-04-23T07:25:35.239Z,9.93
2018-04-23T07:28:03.821Z,8.20
2018-04-23T07:30:32.192Z,6.80
2018-04-23T07:33:00.622Z,7.57
2018-04-23T07:35:29.061Z,7.63
2018-04-23T07:37:57.547Z,7.67
2018-04-23T07:40:26.084Z,7.30
2018-04-23T07:42:56.168Z,7.50
2018-04-23T07:45:24.554Z,7.20
2018-04-23T07:47:54.507Z,9.30
2018-04-23T07:50:23.728Z,7.57
2018-04-23T07:52:52.145Z,7.47
2018-04-23T07:55:21.513Z,7.47
2018-04-23T07:57:49.949Z,6.50
2018-04-23T08:00:19.119Z,6.23
2018-04-23T08:02:48.376Z,7.50
2018-04-23T08:05:17.221Z,7.57
2018-04-23T08:07:48.201Z,8.00
2018-04-23T08:10:16.932Z,7.87
2018-04-23T08:12:46.553Z,7.55
2018-04-23T08:15:15.812Z,7.40
2018-04-23T08:17:44.262Z,6.87
2018-04-23T08:20:13.655Z,6.50
2018-04-23T08:22:42.840Z,7.33
2018-04-23T08:25:12.112Z,6.70
2018-04-23T08:27:40.569Z,6.80
2018-04-23T08:30:09.084Z,6.13
2018-04-23T08:32:37.727Z,7.37
2018-04-23T08:35:06.176Z,7.90
2018-04-23T08:37:35.423Z,8.20
2018-04-23T08:40:04.713Z,11.38
2018-04-23T08:42:33.192Z,9.80
2018-04-23T08:45:01.710Z,8.87
2018-04-23T08:47:30.060Z,7.37
2018-04-23T08:49:58.473Z,7.43
2018-04-23T08:52:26.961Z,7.22
2018-04-23T08:54:55.499Z,7.50
2018-04-23T08:57:23.913Z,7.30
2018-04-23T08:59:52.558Z,7.40
2018-04-23T09:02:20.958Z,8.18
2018-04-23T09:04:49.389Z,8.30
2018-04-23T09:07:18.563Z,8.05
2018-04-23T09:09:50.103Z,7.35
2018-04-23T09:12:18.663Z,8.38
2018-04-23T09:14:47.956Z,7.45
2018-04-23T09:17:16.540Z,7.40
2018-04-23T09:19:45.431Z,7.78
2018-04-23T09:22:13.918Z,7.78
2018-04-23T09:24:42.488Z,8.15
2018-04-23T09:27:10.969Z,8.20
2018-04-23T09:29:39.390Z,8.48
2018-04-23T09:32:07.878Z,7.87
2018-04-23T09:34:37.338Z,7.95
2018-04-23T09:37:05.690Z,7.60
2018-04-23T09:39:34.917Z,8.10
2018-04-23T09:42:03.398Z,7.62
2018-04-23T09:44:31.906Z,7.50
2018-04-23T09:47:01.038Z,8.13
2018-04-23T09:49:29.761Z,8.57
2018-04-23T09:51:58.172Z,8.15
2018-04-23T09:54:26.542Z,9.05
2018-04-23T09:56:54.992Z,7.22
2018-04-23T09:59:23.484Z,7.45
2018-04-23T10:01:52.141Z,8.10
2018-04-23T10:04:21.462Z,8.25
2018-04-23T10:06:49.918Z,8.73
2018-04-23T10:09:18.741Z,8.05
2018-04-23T10:11:47.785Z,8.80
2018-04-23T10:14:17.334Z,8.88
2018-04-23T10:16:47.297Z,8.75
2018-04-23T10:19:17.403Z,7.22
2018-04-23T10:21:47.488Z,8.95
2018-04-23T10:24:16.831Z,8.15
2018-04-23T10:26:46.129Z,9.38
2018-04-23T10:29:18.028Z,8.82
2018-04-23T10:31:47.376Z,7.60
2018-04-23T10:34:15.727Z,7.32
2018-04-23T10:36:44.173Z,8.00
2018-04-23T10:39:13.611Z,11.25
2018-04-23T10:41:42.092Z,8.88
2018-04-23T10:44:10.567Z,9.18
2018-04-23T10:46:39.796Z,8.55
2018-04-23T10:49:09.122Z,10.07
2018-04-23T10:51:37.650Z,9.50
2018-04-23T10:54:09.599Z,8.15
2018-04-23T10:56:39.742Z,8.57
2018-04-23T10:59:08.463Z,8.38
2018-04-23T11:01:37.004Z,7.72
2018-04-23T11:04:05.484Z,8.57
2018-04-23T11:06:33.891Z,8.25
2018-04-23T11:09:02.401Z,8.88
2018-04-23T11:11:31.538Z,8.98
2018-04-23T11:14:00.021Z,10.35
2018-04-23T11:16:28.812Z,9.57
2018-04-23T11:18:57.293Z,10.55
2018-04-23T11:21:25.767Z,10.50
2018-04-23T11:23:54.779Z,12.35
2018-04-23T11:26:23.243Z,10.93
2018-04-23T11:28:51.732Z,10.70
2018-04-23T11:31:20.166Z,10.50
2018-04-23T11:33:48.893Z,10.90
2018-04-23T11:36:17.380Z,11.55
2018-04-23T11:38:45.897Z,11.25
2018-04-23T11:41:15.102Z,10.70
2018-04-23T11:43:44.310Z,9.15
2018-04-23T11:46:15.319Z,9.63
2018-04-23T11:48:44.639Z,8.70
2018-04-23T11:51:15.770Z,10.50
2018-04-23T11:53:45.240Z,8.48
2018-04-23T11:56:14.256Z,10.68
2018-04-23T11:58:42.638Z,9.63
2018-04-23T12:01:11.220Z,9.93
2018-04-23T12:03:39.703Z,8.88
2018-04-23T12:06:08.104Z,8.80
2018-04-23T12:08:37.653Z,8.38
2018-04-23T12:11:06.071Z,8.30
2018-04-23T12:13:34.619Z,7.72
2018-04-23T12:16:03.070Z,8.70
2018-04-23T12:18:32.567Z,6.10
2018-04-23T12:21:01.189Z,6.00
2018-04-23T12:23:29.565Z,7.55
2018-04-23T12:25:58.050Z,7.00
2018-04-23T12:28:26.479Z,6.90
2018-04-23T12:30:55.959Z,6.70
2018-04-23T12:33:31.762Z,6.78
2018-04-23T12:36:03.643Z,7.25
2018-04-23T12:38:35.144Z,6.50
2018-04-23T12:41:03.887Z,7.20
2018-04-23T12:43:32.408Z,6.37
2018-04-23T12:46:02.559Z,7.10
2018-04-23T12:48:31.179Z,7.18
2018-04-23T12:50:59.712Z,7.53
2018-04-23T12:53:28.952Z,6.97
2018-04-23T12:55:57.542Z,6.82
2018-04-23T12:58:26.737Z,6.45
2018-04-23T13:00:55.141Z,8.40
2018-04-23T13:03:23.796Z,7.30
2018-04-23T13:05:52.215Z,6.43
2018-04-23T13:08:22.189Z,7.03
2018-04-23T13:10:50.671Z,8.52
2018-04-23T13:13:19.051Z,8.63
2018-04-23T13:15:47.533Z,9.50
2018-04-23T13:18:15.932Z,9.15
2018-04-23T13:20:44.597Z,9.25
2018-04-23T13:23:13.120Z,8.48
2018-04-23T13:25:41.657Z,8.55
2018-04-23T13:28:10.036Z,8.63
2018-04-23T13:30:38.518Z,9.30
2018-04-23T13:33:06.903Z,9.43
2018-04-23T13:35:35.384Z,8.65
2018-04-23T13:38:03.706Z,9.13
2018-04-23T13:40:32.136Z,8.85
2018-04-23T13:43:00.542Z,7.90
2018-04-23T13:45:28.999Z,7.68
2018-04-23T13:47:57.580Z,7.40
2018-04-23T13:50:25.917Z,6.78
2018-04-23T13:52:55.264Z,7.50
2018-04-23T13:55:23.850Z,6.97
2018-04-23T13:57:52.353Z,6.55
2018-04-23T14:00:20.805Z,6.12
2018-04-23T14:02:49.959Z,6.62
2018-04-23T14:05:19.090Z,6.03
2018-04-23T14:07:47.576Z,5.55
2018-04-23T14:10:15.991Z,6.35
2018-04-23T14:12:44.561Z,5.68
2018-04-23T14:15:14.149Z,5.25
2018-04-23T14:17:42.746Z,4.85
2018-04-23T14:20:11.323Z,5.12
2018-04-23T14:22:39.739Z,4.72
2018-04-23T14:25:08.741Z,4.75
2018-04-23T14:27:37.987Z,4.82
2018-04-23T14:30:06.395Z,5.78
2018-04-23T14:32:35.474Z,4.95
2018-04-23T14:35:04.115Z,5.00
2018-04-23T14:37:32.579Z,4.93
2018-04-23T14:40:02.047Z,4.90
2018-04-23T14:42:30.628Z,4.85
2018-04-23T14:44:59.120Z,6.03
2018-04-23T14:47:29.349Z,5.35
2018-04-23T14:49:57.934Z,5.50
2018-04-23T14:52:28.117Z,5.15
2018-04-23T14:54:57.009Z,5.28
2018-04-23T14:57:25.407Z,5.85
2018-04-23T14:59:53.754Z,5.55
2018-04-23T15:02:22.194Z,4.97
2018-04-23T15:04:50.531Z,5.15
2018-04-23T15:07:19.003Z,4.22
2018-04-23T15:09:47.407Z,4.68
2018-04-23T15:12:15.858Z,5.03
2018-04-23T15:14:47.984Z,4.93
2018-04-23T15:17:16.611Z,4.78
2018-04-23T15:19:45.239Z,5.22
2018-04-23T15:22:15.214Z,5.12
2018-04-23T15:24:44.159Z,5.07
2018-04-23T15:27:13.412Z,5.00
2018-04-23T15:29:41.991Z,5.18
2018-04-23T15:32:11.288Z,4.43
2018-04-23T15:34:39.773Z,4.47
2018-04-23T15:37:08.284Z,4.62
2018-04-23T15:39:38.376Z,4.90
2018-04-23T15:42:07.805Z,4.65
2018-04-23T15:44:38.206Z,5.07
2018-04-23T15:47:06.800Z,4.68
2018-04-23T15:49:37.117Z,4.43
2018-04-23T15:52:06.349Z,4.10
2018-04-23T15:54:34.890Z,5.70
2018-04-23T15:57:03.262Z,5.05
2018-04-23T15:59:31.637Z,4.62
2018-04-23T16:02:00.065Z,4.97
2018-04-23T16:04:28.428Z,4.72
2018-04-23T16:06:56.992Z,5.18
2018-04-23T16:09:25.459Z,7.45
2018-04-23T16:11:53.855Z,8.35
2018-04-23T16:14:22.219Z,5.35
2018-04-23T16:16:50.905Z,7.62
2018-04-23T16:19:19.388Z,6.20
2018-04-23T16:21:47.865Z,6.53
2018-04-23T16:24:16.344Z,5.62
2018-04-23T16:26:44.724Z,5.93
2018-04-23T16:29:13.309Z,7.87
2018-04-23T16:31:41.640Z,4.80
2018-04-23T16:34:10.172Z,6.80
2018-04-23T16:36:38.645Z,6.27
2018-04-23T16:39:07.134Z,5.55
2018-04-23T16:41:35.607Z,5.80
2018-04-23T16:44:04.060Z,5.90
2018-04-23T16:46:32.569Z,5.57
2018-04-23T16:49:00.900Z,6.07
2018-04-23T16:51:29.329Z,5.30
2018-04-23T16:53:57.880Z,5.33
2018-04-23T16:56:26.230Z,5.67
2018-04-23T16:58:54.673Z,5.27
2018-04-23T17:01:23.250Z,5.10
2018-04-23T17:03:51.732Z,5.72
2018-04-23T17:06:20.219Z,7.23
2018-04-23T17:08:48.567Z,4.97
2018-04-23T17:11:20.158Z,6.00
2018-04-23T17:13:49.813Z,6.93
2018-04-23T17:16:18.761Z,6.07
2018-04-23T17:18:48.491Z,6.30
2018-04-23T17:21:17.817Z,5.63
2018-04-23T17:23:47.813Z,7.37
2018-04-23T17:26:16.254Z,6.33
2018-04-23T17:28:45.321Z,9.00
2018-04-23T17:31:17.349Z,7.67
2018-04-23T17:33:46.640Z,7.20
2018-04-23T17:36:15.923Z,6.97
2018-04-23T17:38:44.801Z,7.10
2018-04-23T17:41:13.196Z,6.87
2018-04-23T17:43:42.166Z,7.77
2018-04-23T17:46:12.883Z,8.60
2018-04-23T17:48:44.469Z,8.47
2018-04-23T17:51:12.977Z,8.13
2018-04-23T17:56:10.417Z,7.00
2018-04-23T17:58:38.816Z,11.30
2018-04-23T18:01:07.277Z,9.77
2018-04-23T18:03:35.754Z,7.33
2018-04-23T18:06:04.148Z,8.00
2018-04-23T18:08:32.531Z,7.27
2018-04-23T18:11:01.054Z,8.17
2018-04-23T18:13:30.381Z,8.17
2018-04-23T18:15:58.899Z,7.67
2018-04-23T18:18:27.356Z,7.67
2018-04-23T18:20:55.707Z,7.93
2018-04-23T18:23:26.947Z,8.00
2018-04-23T18:25:55.671Z,7.90
2018-04-23T18:28:24.215Z,8.27
2018-04-23T18:30:53.422Z,8.33
2018-04-23T18:33:21.863Z,8.27
2018-04-23T18:35:50.321Z,8.77
2018-04-23T18:38:18.698Z,8.03
2018-04-23T18:40:47.269Z,8.90
2018-04-23T18:43:16.673Z,8.43
2018-04-23T18:45:45.307Z,9.10
2018-04-23T18:48:14.652Z,8.43
2018-04-23T18:50:43.696Z,9.73
2018-04-23T18:53:12.240Z,9.00
2018-04-23T18:55:40.660Z,9.07
2018-04-23T18:58:09.300Z,9.00
2018-04-23T19:00:38.049Z,9.00
2018-04-23T19:03:06.613Z,9.47
2018-04-23T19:05:35.097Z,9.43
2018-04-23T19:08:04.389Z,9.13
2018-04-23T19:10:32.930Z,9.83
2018-04-23T19:13:01.236Z,9.87
2018-04-23T19:15:29.738Z,9.07
2018-04-23T19:17:59.814Z,9.13
2018-04-23T19:20:28.634Z,9.03
2018-04-23T19:22:58.548Z,8.87
2018-04-23T19:25:26.886Z,9.67
2018-04-23T19:27:55.374Z,9.40
2018-04-23T19:30:23.859Z,8.73
2018-04-23T19:32:52.397Z,8.90
2018-04-23T19:35:21.731Z,8.77
2018-04-23T19:37:50.305Z,9.97
2018-04-23T19:40:18.842Z,8.43
2018-04-23T19:42:47.383Z,7.67
2018-04-23T19:45:16.377Z,7.63
2018-04-23T19:47:44.964Z,8.37
2018-04-23T19:50:13.553Z,8.03
2018-04-23T19:52:42.026Z,7.93
2018-04-23T19:55:10.508Z,8.33
2018-04-23T19:57:38.899Z,8.70
2018-04-23T20:00:07.430Z,8.93
2018-04-23T20:02:36.498Z,8.73
2018-04-23T20:05:04.883Z,8.53
2018-04-23T20:07:33.419Z,9.67
2018-04-23T20:10:02.000Z,9.20
2018-04-23T20:12:32.909Z,8.27
2018-04-23T20:15:01.317Z,8.43
2018-04-23T20:17:29.901Z,8.30
2018-04-23T20:19:58.303Z,9.00
2018-04-23T20:22:26.670Z,7.83
2018-04-23T20:24:55.129Z,8.57
2018-04-23T20:27:23.566Z,8.93
2018-04-23T20:29:51.999Z,8.67
2018-04-23T20:32:20.415Z,8.37
2018-04-23T20:34:48.863Z,7.73
2018-04-23T20:37:18.177Z,8.20
2018-04-23T20:39:47.572Z,7.73
2018-04-23T20:42:16.143Z,7.43
2018-04-23T20:44:44.527Z,7.77
2018-04-23T20:47:12.913Z,7.60
2018-04-23T20:49:41.483Z,6.47
2018-04-23T20:52:11.180Z,7.33
2018-04-23T20:54:40.383Z,7.67
2018-04-23T20:57:08.937Z,6.10
2018-04-23T20:59:37.496Z,7.10
2018-04-23T21:02:07.171Z,6.23
2018-04-23T21:04:35.615Z,6.87
2018-04-23T21:07:04.068Z,7.10
2018-04-23T21:09:35.838Z,5.63
2018-04-23T21:12:05.703Z,6.63
2018-04-23T21:14:34.438Z,6.60
2018-04-23T21:17:03.889Z,6.77
2018-04-23T21:19:32.529Z,6.17
2018-04-23T21:22:01.057Z,7.17
2018-04-23T21:24:29.971Z,7.30
2018-04-23T21:26:58.532Z,6.97
2018-04-23T21:29:27.012Z,6.70
2018-04-23T21:31:56.217Z,7.50
2018-04-23T21:34:24.640Z,8.53
2018-04-23T21:36:53.184Z,8.57
2018-04-23T21:39:21.588Z,7.20
2018-04-23T21:41:51.261Z,6.93
2018-04-23T21:44:20.249Z,6.80
2018-04-23T21:46:48.643Z,7.17
2018-04-23T21:49:20.635Z,7.57
2018-04-23T21:51:50.405Z,7.33
2018-04-23T21:54:20.297Z,6.97
2018-04-23T21:56:48.809Z,7.53
2018-04-23T21:59:17.280Z,7.57
2018-04-23T22:01:45.770Z,7.70
2018-04-23T22:04:14.146Z,7.67
2018-04-23T22:06:42.634Z,6.43
2018-04-23T22:09:11.050Z,6.17
2018-04-23T22:11:39.563Z,7.17
2018-04-23T22:14:08.067Z,6.37
2018-04-23T22:16:36.661Z,6.50
2018-04-23T22:19:05.202Z,6.67
2018-04-23T22:21:33.647Z,6.90
2018-04-23T22:24:01.944Z,9.10
2018-04-23T22:26:30.518Z,6.13
2018-04-23T22:28:59.051Z,6.00
2018-04-23T22:31:28.253Z,6.07
2018-04-23T22:33:56.638Z,6.40
2018-04-23T22:36:25.021Z,6.17
2018-04-23T22:38:53.485Z,5.67
2018-04-23T22:41:21.793Z,6.37
2018-04-23T22:43:50.248Z,5.80
2018-04-23T22:46:18.722Z,6.50
2018-04-23T22:48:47.205Z,6.10
2018-04-23T22:51:15.562Z,6.10
2018-04-23T22:53:44.172Z,6.30
2018-04-23T22:56:13.171Z,5.90
2018-04-23T22:58:41.721Z,7.23
2018-04-23T23:01:11.033Z,7.07
2018-04-23T23:03:39.813Z,6.93
2018-04-23T23:06:08.126Z,7.40
2018-04-23T23:08:36.591Z,6.43
2018-04-23T23:11:04.997Z,6.17
2018-04-23T23:13:33.285Z,6.30
2018-04-23T23:16:01.731Z,5.90
2018-04-23T23:18:30.050Z,6.27
2018-04-23T23:20:58.396Z,6.33
2018-04-23T23:23:26.765Z,6.37
2018-04-23T23:25:55.501Z,6.20
2018-04-23T23:28:24.690Z,6.50
2018-04-23T23:30:54.245Z,5.40
2018-04-23T23:33:22.650Z,6.70
2018-04-23T23:35:51.045Z,5.77
2018-04-23T23:38:19.488Z,5.87
2018-04-23T23:40:47.816Z,7.03
2018-04-23T23:43:16.349Z,6.60
2018-04-23T23:45:44.833Z,6.17
2018-04-23T23:48:13.265Z,6.33
2018-04-23T23:50:42.611Z,6.33
2018-04-23T23:53:11.189Z,6.40
2018-04-23T23:55:39.677Z,6.37
2018-04-23T23:58:08.051Z,6.67
